sensor_id;sensor_type;location;lat;lon;timestamp;P1;durP1;ratioP1;P2;durP2;ratioP2
15689;SDS011;7945;48.816;11.506;2023-09-08T00:00:41;5.85;;;3.97;;
15689;SDS011;7945;48.816;11.506;2023-09-08T00:03:08;4.40;;;4.00;;
15689;SDS011;7945;48.816;11.506;2023-09-08T00:05:34;4.10;;;3.72;;
15689;SDS011;7945;48.816;11.506;2023-09-08T00:08:03;3.97;;;3.53;;
15689;SDS011;7945;48.816;11.506;2023-09-08T00:10:30;4.22;;;3.83;;
15689;SDS011;7945;48.816;11.506;2023-09-08T00:12:57;4.15;;;3.75;;
15689;SDS011;7945;48.816;11.506;2023-09-08T00:15:23;5.30;;;3.90;;
15689;SDS011;7945;48.816;11.506;2023-09-08T00:17:50;4.20;;;3.65;;
15689;SDS011;7945;48.816;11.506;2023-09-08T00:20:17;6.75;;;3.75;;
15689;SDS011;7945;48.816;11.506;2023-09-08T00:22:44;4.10;;;3.70;;
15689;SDS011;7945;48.816;11.506;2023-09-08T00:25:12;4.60;;;3.90;;
15689;SDS011;7945;48.816;11.506;2023-09-08T00:27:38;4.68;;;4.05;;
15689;SDS011;7945;48.816;11.506;2023-09-08T00:30:06;4.40;;;3.72;;
15689;SDS011;7945;48.816;11.506;2023-09-08T00:32:33;4.47;;;3.78;;
15689;SDS011;7945;48.816;11.506;2023-09-08T00:35:00;4.47;;;3.80;;
15689;SDS011;7945;48.816;11.506;2023-09-08T00:37:26;5.10;;;3.80;;
15689;SDS011;7945;48.816;11.506;2023-09-08T00:39:53;3.92;;;3.53;;
15689;SDS011;7945;48.816;11.506;2023-09-08T00:42:21;4.32;;;3.70;;
15689;SDS011;7945;48.816;11.506;2023-09-08T00:44:48;4.70;;;3.50;;
15689;SDS011;7945;48.816;11.506;2023-09-08T00:47:15;4.43;;;3.95;;
15689;SDS011;7945;48.816;11.506;2023-09-08T00:49:41;3.50;;;3.20;;
15689;SDS011;7945;48.816;11.506;2023-09-08T00:52:08;6.47;;;3.97;;
15689;SDS011;7945;48.816;11.506;2023-09-08T00:54:35;4.32;;;3.65;;
15689;SDS011;7945;48.816;11.506;2023-09-08T00:57:02;4.20;;;3.58;;
15689;SDS011;7945;48.816;11.506;2023-09-08T00:59:32;4.30;;;3.80;;
15689;SDS011;7945;48.816;11.506;2023-09-08T01:02:01;5.85;;;3.55;;
15689;SDS011;7945;48.816;11.506;2023-09-08T01:04:28;4.20;;;3.80;;
15689;SDS011;7945;48.816;11.506;2023-09-08T01:06:55;4.22;;;3.60;;
15689;SDS011;7945;48.816;11.506;2023-09-08T01:09:22;4.45;;;3.60;;
15689;SDS011;7945;48.816;11.506;2023-09-08T01:11:50;5.00;;;3.65;;
15689;SDS011;7945;48.816;11.506;2023-09-08T01:14:17;4.65;;;3.60;;
15689;SDS011;7945;48.816;11.506;2023-09-08T01:16:45;4.35;;;3.63;;
15689;SDS011;7945;48.816;11.506;2023-09-08T01:19:14;4.07;;;3.67;;
15689;SDS011;7945;48.816;11.506;2023-09-08T01:21:53;4.53;;;4.03;;
15689;SDS011;7945;48.816;11.506;2023-09-08T01:24:36;5.03;;;4.00;;
15689;SDS011;7945;48.816;11.506;2023-09-08T01:27:17;5.07;;;3.60;;
15689;SDS011;7945;48.816;11.506;2023-09-08T01:29:45;4.65;;;3.50;;
15689;SDS011;7945;48.816;11.506;2023-09-08T01:32:14;5.82;;;3.45;;
15689;SDS011;7945;48.816;11.506;2023-09-08T01:34:42;5.07;;;3.92;;
15689;SDS011;7945;48.816;11.506;2023-09-08T01:37:09;5.72;;;3.92;;
15689;SDS011;7945;48.816;11.506;2023-09-08T01:39:35;6.82;;;3.75;;
15689;SDS011;7945;48.816;11.506;2023-09-08T01:42:02;4.13;;;3.72;;
15689;SDS011;7945;48.816;11.506;2023-09-08T01:44:31;4.82;;;3.80;;
15689;SDS011;7945;48.816;11.506;2023-09-08T01:46:57;5.10;;;3.90;;
15689;SDS011;7945;48.816;11.506;2023-09-08T01:49:24;4.72;;;3.85;;
15689;SDS011;7945;48.816;11.506;2023-09-08T01:51:51;4.28;;;3.88;;
15689;SDS011;7945;48.816;11.506;2023-09-08T01:54:18;4.30;;;3.72;;
15689;SDS011;7945;48.816;11.506;2023-09-08T01:56:45;5.68;;;4.05;;
15689;SDS011;7945;48.816;11.506;2023-09-08T01:59:11;4.03;;;3.63;;
15689;SDS011;7945;48.816;11.506;2023-09-08T02:01:39;4.07;;;3.45;;
15689;SDS011;7945;48.816;11.506;2023-09-08T02:04:06;5.03;;;4.03;;
15689;SDS011;7945;48.816;11.506;2023-09-08T02:06:33;5.38;;;4.15;;
15689;SDS011;7945;48.816;11.506;2023-09-08T02:09:00;6.93;;;4.30;;
15689;SDS011;7945;48.816;11.506;2023-09-08T02:11:27;6.60;;;4.30;;
15689;SDS011;7945;48.816;11.506;2023-09-08T02:13:53;5.20;;;4.05;;
15689;SDS011;7945;48.816;11.506;2023-09-08T02:16:20;5.68;;;3.88;;
15689;SDS011;7945;48.816;11.506;2023-09-08T02:18:50;4.38;;;3.97;;
15689;SDS011;7945;48.816;11.506;2023-09-08T02:21:17;5.47;;;4.10;;
15689;SDS011;7945;48.816;11.506;2023-09-08T02:23:43;4.20;;;3.80;;
15689;SDS011;7945;48.816;11.506;2023-09-08T02:26:10;4.40;;;3.60;;
15689;SDS011;7945;48.816;11.506;2023-09-08T02:28:37;4.68;;;4.13;;
15689;SDS011;7945;48.816;11.506;2023-09-08T02:31:04;6.90;;;4.10;;
15689;SDS011;7945;48.816;11.506;2023-09-08T02:33:31;4.80;;;3.95;;
15689;SDS011;7945;48.816;11.506;2023-09-08T02:36:02;4.28;;;3.88;;
15689;SDS011;7945;48.816;11.506;2023-09-08T02:38:30;4.35;;;3.95;;
15689;SDS011;7945;48.816;11.506;2023-09-08T02:40:56;5.57;;;4.32;;
15689;SDS011;7945;48.816;11.506;2023-09-08T02:43:23;5.38;;;4.07;;
15689;SDS011;7945;48.816;11.506;2023-09-08T02:45:50;5.60;;;4.50;;
15689;SDS011;7945;48.816;11.506;2023-09-08T02:48:17;4.60;;;4.18;;
15689;SDS011;7945;48.816;11.506;2023-09-08T02:50:43;4.57;;;4.13;;
15689;SDS011;7945;48.816;11.506;2023-09-08T02:53:12;4.32;;;3.88;;
15689;SDS011;7945;48.816;11.506;2023-09-08T02:55:38;4.03;;;3.63;;
15689;SDS011;7945;48.816;11.506;2023-09-08T02:58:05;6.95;;;3.92;;
15689;SDS011;7945;48.816;11.506;2023-09-08T03:00:32;6.55;;;3.80;;
15689;SDS011;7945;48.816;11.506;2023-09-08T03:02:59;4.65;;;4.10;;
15689;SDS011;7945;48.816;11.506;2023-09-08T03:05:25;4.55;;;4.07;;
15689;SDS011;7945;48.816;11.506;2023-09-08T03:07:52;4.35;;;3.95;;
15689;SDS011;7945;48.816;11.506;2023-09-08T03:10:20;5.70;;;4.20;;
15689;SDS011;7945;48.816;11.506;2023-09-08T03:12:47;4.55;;;4.00;;
15689;SDS011;7945;48.816;11.506;2023-09-08T03:15:14;4.22;;;3.72;;
15689;SDS011;7945;48.816;11.506;2023-09-08T03:17:41;4.50;;;4.10;;
15689;SDS011;7945;48.816;11.506;2023-09-08T03:20:09;5.25;;;3.95;;
15689;SDS011;7945;48.816;11.506;2023-09-08T03:22:38;6.78;;;4.10;;
15689;SDS011;7945;48.816;11.506;2023-09-08T03:25:05;4.38;;;3.97;;
15689;SDS011;7945;48.816;11.506;2023-09-08T03:27:34;6.45;;;4.15;;
15689;SDS011;7945;48.816;11.506;2023-09-08T03:30:00;6.05;;;4.10;;
15689;SDS011;7945;48.816;11.506;2023-09-08T03:32:28;5.53;;;4.07;;
15689;SDS011;7945;48.816;11.506;2023-09-08T03:34:54;4.65;;;4.22;;
15689;SDS011;7945;48.816;11.506;2023-09-08T03:37:21;4.35;;;3.75;;
15689;SDS011;7945;48.816;11.506;2023-09-08T03:39:48;5.82;;;4.25;;
15689;SDS011;7945;48.816;11.506;2023-09-08T03:42:15;6.20;;;4.10;;
15689;SDS011;7945;48.816;11.506;2023-09-08T03:44:43;4.93;;;3.90;;
15689;SDS011;7945;48.816;11.506;2023-09-08T03:47:10;4.72;;;4.00;;
15689;SDS011;7945;48.816;11.506;2023-09-08T03:49:37;4.07;;;3.63;;
15689;SDS011;7945;48.816;11.506;2023-09-08T03:52:04;4.47;;;4.05;;
15689;SDS011;7945;48.816;11.506;2023-09-08T03:54:31;4.25;;;3.83;;
15689;SDS011;7945;48.816;11.506;2023-09-08T03:56:58;3.92;;;3.63;;
15689;SDS011;7945;48.816;11.506;2023-09-08T03:59:25;4.45;;;3.75;;
15689;SDS011;7945;48.816;11.506;2023-09-08T04:01:53;4.53;;;3.90;;
15689;SDS011;7945;48.816;11.506;2023-09-08T04:04:20;5.72;;;4.03;;
15689;SDS011;7945;48.816;11.506;2023-09-08T04:06:47;5.30;;;4.65;;
15689;SDS011;7945;48.816;11.506;2023-09-08T04:09:14;6.00;;;4.18;;
15689;SDS011;7945;48.816;11.506;2023-09-08T04:11:40;5.47;;;4.25;;
15689;SDS011;7945;48.816;11.506;2023-09-08T04:14:07;5.70;;;4.30;;
15689;SDS011;7945;48.816;11.506;2023-09-08T04:16:34;4.70;;;3.85;;
15689;SDS011;7945;48.816;11.506;2023-09-08T04:19:02;4.10;;;3.60;;
15689;SDS011;7945;48.816;11.506;2023-09-08T04:21:29;4.25;;;3.70;;
15689;SDS011;7945;48.816;11.506;2023-09-08T04:23:56;4.57;;;4.18;;
15689;SDS011;7945;48.816;11.506;2023-09-08T04:26:22;5.45;;;3.90;;
15689;SDS011;7945;48.816;11.506;2023-09-08T04:28:50;5.22;;;4.10;;
15689;SDS011;7945;48.816;11.506;2023-09-08T04:31:16;4.32;;;3.90;;
15689;SDS011;7945;48.816;11.506;2023-09-08T04:33:44;4.93;;;4.10;;
15689;SDS011;7945;48.816;11.506;2023-09-08T04:36:12;4.68;;;4.07;;
15689;SDS011;7945;48.816;11.506;2023-09-08T04:38:40;4.70;;;3.92;;
15689;SDS011;7945;48.816;11.506;2023-09-08T04:41:07;7.65;;;4.03;;
15689;SDS011;7945;48.816;11.506;2023-09-08T04:43:33;5.70;;;4.32;;
15689;SDS011;7945;48.816;11.506;2023-09-08T04:46:00;4.43;;;3.47;;
15689;SDS011;7945;48.816;11.506;2023-09-08T04:48:28;4.50;;;4.00;;
15689;SDS011;7945;48.816;11.506;2023-09-08T04:50:55;4.60;;;4.03;;
15689;SDS011;7945;48.816;11.506;2023-09-08T04:53:24;4.85;;;4.00;;
15689;SDS011;7945;48.816;11.506;2023-09-08T04:55:50;4.95;;;3.95;;
15689;SDS011;7945;48.816;11.506;2023-09-08T04:58:17;4.53;;;4.13;;
15689;SDS011;7945;48.816;11.506;2023-09-08T05:00:44;4.78;;;3.88;;
15689;SDS011;7945;48.816;11.506;2023-09-08T05:03:11;6.70;;;4.30;;
15689;SDS011;7945;48.816;11.506;2023-09-08T05:05:37;5.97;;;4.50;;
15689;SDS011;7945;48.816;11.506;2023-09-08T05:08:04;4.85;;;4.22;;
15689;SDS011;7945;48.816;11.506;2023-09-08T05:10:33;7.28;;;4.57;;
15689;SDS011;7945;48.816;11.506;2023-09-08T05:12:59;7.50;;;4.90;;
15689;SDS011;7945;48.816;11.506;2023-09-08T05:15:26;4.65;;;4.22;;
15689;SDS011;7945;48.816;11.506;2023-09-08T05:17:53;5.53;;;4.30;;
15689;SDS011;7945;48.816;11.506;2023-09-08T05:20:19;4.47;;;4.05;;
15689;SDS011;7945;48.816;11.506;2023-09-08T05:22:46;6.15;;;5.07;;
15689;SDS011;7945;48.816;11.506;2023-09-08T05:25:13;4.18;;;3.80;;
15689;SDS011;7945;48.816;11.506;2023-09-08T05:27:41;4.47;;;4.05;;
15689;SDS011;7945;48.816;11.506;2023-09-08T05:30:08;4.43;;;3.97;;
15689;SDS011;7945;48.816;11.506;2023-09-08T05:32:35;5.30;;;3.85;;
15689;SDS011;7945;48.816;11.506;2023-09-08T05:35:02;4.90;;;4.00;;
15689;SDS011;7945;48.816;11.506;2023-09-08T05:37:29;4.90;;;3.75;;
15689;SDS011;7945;48.816;11.506;2023-09-08T05:39:56;4.63;;;3.75;;
15689;SDS011;7945;48.816;11.506;2023-09-08T05:42:23;6.05;;;4.10;;
15689;SDS011;7945;48.816;11.506;2023-09-08T05:44:51;5.85;;;4.07;;
15689;SDS011;7945;48.816;11.506;2023-09-08T05:47:19;4.65;;;4.18;;
15689;SDS011;7945;48.816;11.506;2023-09-08T05:49:46;4.18;;;3.78;;
15689;SDS011;7945;48.816;11.506;2023-09-08T05:52:13;4.57;;;3.83;;
15689;SDS011;7945;48.816;11.506;2023-09-08T05:54:40;4.90;;;4.05;;
15689;SDS011;7945;48.816;11.506;2023-09-08T05:57:06;3.67;;;3.38;;
15689;SDS011;7945;48.816;11.506;2023-09-08T05:59:33;4.63;;;3.60;;
15689;SDS011;7945;48.816;11.506;2023-09-08T06:02:02;5.32;;;3.92;;
15689;SDS011;7945;48.816;11.506;2023-09-08T06:04:29;6.05;;;3.78;;
15689;SDS011;7945;48.816;11.506;2023-09-08T06:06:57;4.63;;;4.15;;
15689;SDS011;7945;48.816;11.506;2023-09-08T06:09:24;3.78;;;3.45;;
15689;SDS011;7945;48.816;11.506;2023-09-08T06:11:50;4.25;;;3.83;;
15689;SDS011;7945;48.816;11.506;2023-09-08T06:15:46;5.47;;;3.97;;
15689;SDS011;7945;48.816;11.506;2023-09-08T06:18:13;4.43;;;4.03;;
15689;SDS011;7945;48.816;11.506;2023-09-08T06:20:44;4.25;;;3.85;;
15689;SDS011;7945;48.816;11.506;2023-09-08T06:23:11;4.07;;;3.60;;
15689;SDS011;7945;48.816;11.506;2023-09-08T06:25:38;6.03;;;4.00;;
15689;SDS011;7945;48.816;11.506;2023-09-08T06:28:05;5.40;;;3.50;;
15689;SDS011;7945;48.816;11.506;2023-09-08T06:30:33;5.45;;;4.05;;
15689;SDS011;7945;48.816;11.506;2023-09-08T06:33:01;5.18;;;4.35;;
15689;SDS011;7945;48.816;11.506;2023-09-08T06:35:28;4.55;;;4.15;;
15689;SDS011;7945;48.816;11.506;2023-09-08T06:37:55;4.07;;;3.67;;
15689;SDS011;7945;48.816;11.506;2023-09-08T06:40:22;5.35;;;3.90;;
15689;SDS011;7945;48.816;11.506;2023-09-08T06:42:49;5.13;;;4.35;;
15689;SDS011;7945;48.816;11.506;2023-09-08T06:45:16;4.50;;;4.00;;
15689;SDS011;7945;48.816;11.506;2023-09-08T06:47:43;6.78;;;4.10;;
15689;SDS011;7945;48.816;11.506;2023-09-08T06:50:11;4.28;;;3.70;;
15689;SDS011;7945;48.816;11.506;2023-09-08T06:52:38;4.38;;;3.95;;
15689;SDS011;7945;48.816;11.506;2023-09-08T06:55:05;4.68;;;3.92;;
15689;SDS011;7945;48.816;11.506;2023-09-08T06:57:32;4.30;;;3.90;;
15689;SDS011;7945;48.816;11.506;2023-09-08T06:59:59;6.47;;;3.97;;
15689;SDS011;7945;48.816;11.506;2023-09-08T07:02:26;6.18;;;4.10;;
15689;SDS011;7945;48.816;11.506;2023-09-08T07:04:52;6.93;;;4.65;;
15689;SDS011;7945;48.816;11.506;2023-09-08T07:07:20;5.32;;;4.15;;
15689;SDS011;7945;48.816;11.506;2023-09-08T07:09:48;7.60;;;4.90;;
15689;SDS011;7945;48.816;11.506;2023-09-08T07:12:14;4.60;;;4.00;;
15689;SDS011;7945;48.816;11.506;2023-09-08T07:14:41;5.28;;;4.50;;
15689;SDS011;7945;48.816;11.506;2023-09-08T07:17:08;7.18;;;4.10;;
15689;SDS011;7945;48.816;11.506;2023-09-08T07:19:35;6.13;;;4.07;;
15689;SDS011;7945;48.816;11.506;2023-09-08T07:22:02;4.72;;;4.20;;
15689;SDS011;7945;48.816;11.506;2023-09-08T07:24:30;4.95;;;4.45;;
15689;SDS011;7945;48.816;11.506;2023-09-08T07:26:57;4.63;;;4.13;;
15689;SDS011;7945;48.816;11.506;2023-09-08T07:29:25;4.38;;;3.97;;
15689;SDS011;7945;48.816;11.506;2023-09-08T07:31:52;4.43;;;3.97;;
15689;SDS011;7945;48.816;11.506;2023-09-08T07:34:19;6.18;;;3.92;;
15689;SDS011;7945;48.816;11.506;2023-09-08T07:36:46;4.82;;;4.28;;
15689;SDS011;7945;48.816;11.506;2023-09-08T07:39:13;5.75;;;4.50;;
15689;SDS011;7945;48.816;11.506;2023-09-08T07:41:41;6.07;;;4.18;;
15689;SDS011;7945;48.816;11.506;2023-09-08T07:44:08;4.95;;;4.18;;
15689;SDS011;7945;48.816;11.506;2023-09-08T07:46:35;5.88;;;4.15;;
15689;SDS011;7945;48.816;11.506;2023-09-08T07:49:02;6.93;;;4.10;;
15689;SDS011;7945;48.816;11.506;2023-09-08T07:51:28;5.05;;;3.85;;
15689;SDS011;7945;48.816;11.506;2023-09-08T07:53:55;4.70;;;4.13;;
15689;SDS011;7945;48.816;11.506;2023-09-08T07:56:23;4.35;;;3.92;;
15689;SDS011;7945;48.816;11.506;2023-09-08T07:58:51;6.95;;;4.32;;
15689;SDS011;7945;48.816;11.506;2023-09-08T08:01:18;6.05;;;4.70;;
15689;SDS011;7945;48.816;11.506;2023-09-08T08:03:44;4.60;;;4.13;;
15689;SDS011;7945;48.816;11.506;2023-09-08T08:06:11;5.95;;;4.40;;
15689;SDS011;7945;48.816;11.506;2023-09-08T08:08:38;5.18;;;4.47;;
15689;SDS011;7945;48.816;11.506;2023-09-08T08:11:08;5.97;;;4.72;;
15689;SDS011;7945;48.816;11.506;2023-09-08T08:13:36;5.22;;;4.50;;
15689;SDS011;7945;48.816;11.506;2023-09-08T08:16:05;6.88;;;4.63;;
15689;SDS011;7945;48.816;11.506;2023-09-08T08:18:32;5.10;;;4.60;;
15689;SDS011;7945;48.816;11.506;2023-09-08T08:20:59;5.07;;;4.35;;
15689;SDS011;7945;48.816;11.506;2023-09-08T08:23:28;5.20;;;4.68;;
15689;SDS011;7945;48.816;11.506;2023-09-08T08:25:55;7.97;;;4.97;;
15689;SDS011;7945;48.816;11.506;2023-09-08T08:28:22;5.10;;;4.50;;
15689;SDS011;7945;48.816;11.506;2023-09-08T08:30:49;6.10;;;4.97;;
15689;SDS011;7945;48.816;11.506;2023-09-08T08:33:17;6.75;;;4.45;;
15689;SDS011;7945;48.816;11.506;2023-09-08T08:35:48;6.65;;;4.35;;
15689;SDS011;7945;48.816;11.506;2023-09-08T08:38:15;6.00;;;5.13;;
15689;SDS011;7945;48.816;11.506;2023-09-08T08:40:42;5.55;;;5.05;;
15689;SDS011;7945;48.816;11.506;2023-09-08T08:43:08;6.20;;;4.50;;
15689;SDS011;7945;48.816;11.506;2023-09-08T08:45:35;6.07;;;5.30;;
15689;SDS011;7945;48.816;11.506;2023-09-08T08:48:04;5.68;;;4.97;;
15689;SDS011;7945;48.816;11.506;2023-09-08T08:50:33;5.72;;;5.20;;
15689;SDS011;7945;48.816;11.506;2023-09-08T08:53:01;6.85;;;4.68;;
15689;SDS011;7945;48.816;11.506;2023-09-08T08:55:29;5.45;;;4.82;;
15689;SDS011;7945;48.816;11.506;2023-09-08T08:57:57;5.82;;;5.22;;
15689;SDS011;7945;48.816;11.506;2023-09-08T09:00:29;6.13;;;5.38;;
15689;SDS011;7945;48.816;11.506;2023-09-08T09:02:56;7.47;;;5.40;;
15689;SDS011;7945;48.816;11.506;2023-09-08T09:05:26;6.32;;;5.22;;
15689;SDS011;7945;48.816;11.506;2023-09-08T09:07:54;6.45;;;5.60;;
15689;SDS011;7945;48.816;11.506;2023-09-08T09:10:24;6.43;;;5.00;;
15689;SDS011;7945;48.816;11.506;2023-09-08T09:12:51;6.03;;;4.97;;
15689;SDS011;7945;48.816;11.506;2023-09-08T09:15:27;6.20;;;5.05;;
15689;SDS011;7945;48.816;11.506;2023-09-08T09:18:01;5.93;;;4.95;;
15689;SDS011;7945;48.816;11.506;2023-09-08T09:20:29;5.85;;;4.70;;
15689;SDS011;7945;48.816;11.506;2023-09-08T09:22:57;5.68;;;4.85;;
15689;SDS011;7945;48.816;11.506;2023-09-08T09:25:25;7.32;;;4.63;;
15689;SDS011;7945;48.816;11.506;2023-09-08T09:27:53;7.93;;;5.38;;
15689;SDS011;7945;48.816;11.506;2023-09-08T09:30:21;8.13;;;5.18;;
15689;SDS011;7945;48.816;11.506;2023-09-08T09:32:50;6.40;;;5.18;;
15689;SDS011;7945;48.816;11.506;2023-09-08T09:35:29;6.63;;;5.18;;
15689;SDS011;7945;48.816;11.506;2023-09-08T09:38:07;5.32;;;4.82;;
15689;SDS011;7945;48.816;11.506;2023-09-08T09:40:34;7.18;;;4.80;;
15689;SDS011;7945;48.816;11.506;2023-09-08T09:43:02;5.78;;;4.95;;
15689;SDS011;7945;48.816;11.506;2023-09-08T09:45:29;7.75;;;5.32;;
15689;SDS011;7945;48.816;11.506;2023-09-08T09:47:56;7.25;;;4.95;;
15689;SDS011;7945;48.816;11.506;2023-09-08T09:50:27;6.60;;;4.80;;
15689;SDS011;7945;48.816;11.506;2023-09-08T09:52:56;6.15;;;4.82;;
15689;SDS011;7945;48.816;11.506;2023-09-08T09:55:26;6.57;;;5.10;;
15689;SDS011;7945;48.816;11.506;2023-09-08T09:57:55;7.20;;;5.47;;
15689;SDS011;7945;48.816;11.506;2023-09-08T10:00:25;6.50;;;5.15;;
15689;SDS011;7945;48.816;11.506;2023-09-08T10:02:53;4.97;;;4.47;;
15689;SDS011;7945;48.816;11.506;2023-09-08T10:05:20;5.38;;;4.88;;
15689;SDS011;7945;48.816;11.506;2023-09-08T10:07:47;5.28;;;4.63;;
15689;SDS011;7945;48.816;11.506;2023-09-08T10:10:15;7.28;;;5.03;;
15689;SDS011;7945;48.816;11.506;2023-09-08T10:12:45;6.85;;;5.10;;
15689;SDS011;7945;48.816;11.506;2023-09-08T10:15:15;5.28;;;4.60;;
15689;SDS011;7945;48.816;11.506;2023-09-08T10:17:47;7.35;;;5.00;;
15689;SDS011;7945;48.816;11.506;2023-09-08T10:20:19;7.00;;;5.00;;
15689;SDS011;7945;48.816;11.506;2023-09-08T10:22:48;6.43;;;5.18;;
15689;SDS011;7945;48.816;11.506;2023-09-08T10:25:19;6.78;;;4.88;;
15689;SDS011;7945;48.816;11.506;2023-09-08T10:27:50;5.80;;;4.90;;
15689;SDS011;7945;48.816;11.506;2023-09-08T10:30:17;5.18;;;4.68;;
15689;SDS011;7945;48.816;11.506;2023-09-08T10:32:45;6.93;;;4.80;;
15689;SDS011;7945;48.816;11.506;2023-09-08T10:35:14;5.50;;;4.50;;
15689;SDS011;7945;48.816;11.506;2023-09-08T10:37:44;6.45;;;5.10;;
15689;SDS011;7945;48.816;11.506;2023-09-08T10:40:20;5.60;;;4.68;;
15689;SDS011;7945;48.816;11.506;2023-09-08T10:42:48;5.78;;;4.82;;
15689;SDS011;7945;48.816;11.506;2023-09-08T10:45:31;6.05;;;5.03;;
15689;SDS011;7945;48.816;11.506;2023-09-08T10:47:58;7.15;;;5.07;;
15689;SDS011;7945;48.816;11.506;2023-09-08T10:50:34;5.85;;;4.93;;
15689;SDS011;7945;48.816;11.506;2023-09-08T10:53:09;7.65;;;4.55;;
15689;SDS011;7945;48.816;11.506;2023-09-08T10:55:39;5.75;;;4.45;;
15689;SDS011;7945;48.816;11.506;2023-09-08T10:58:10;6.00;;;5.07;;
15689;SDS011;7945;48.816;11.506;2023-09-08T11:00:44;5.65;;;4.80;;
15689;SDS011;7945;48.816;11.506;2023-09-08T11:03:13;5.45;;;4.40;;
15689;SDS011;7945;48.816;11.506;2023-09-08T11:05:41;8.32;;;5.05;;
15689;SDS011;7945;48.816;11.506;2023-09-08T11:08:09;4.78;;;4.38;;
15689;SDS011;7945;48.816;11.506;2023-09-08T11:10:36;5.63;;;4.88;;
15689;SDS011;7945;48.816;11.506;2023-09-08T11:13:05;5.00;;;4.50;;
15689;SDS011;7945;48.816;11.506;2023-09-08T11:15:34;5.57;;;4.30;;
15689;SDS011;7945;48.816;11.506;2023-09-08T11:18:06;5.65;;;4.80;;
15689;SDS011;7945;48.816;11.506;2023-09-08T11:20:34;5.93;;;5.03;;
15689;SDS011;7945;48.816;11.506;2023-09-08T11:23:00;7.00;;;4.30;;
15689;SDS011;7945;48.816;11.506;2023-09-08T11:25:30;6.97;;;4.75;;
15689;SDS011;7945;48.816;11.506;2023-09-08T11:27:58;6.10;;;4.95;;
15689;SDS011;7945;48.816;11.506;2023-09-08T11:30:26;5.15;;;4.28;;
15689;SDS011;7945;48.816;11.506;2023-09-08T11:32:54;6.57;;;4.07;;
15689;SDS011;7945;48.816;11.506;2023-09-08T11:35:23;6.00;;;4.47;;
15689;SDS011;7945;48.816;11.506;2023-09-08T11:37:53;4.90;;;4.40;;
15689;SDS011;7945;48.816;11.506;2023-09-08T11:40:26;5.07;;;4.30;;
15689;SDS011;7945;48.816;11.506;2023-09-08T11:42:53;5.63;;;4.30;;
15689;SDS011;7945;48.816;11.506;2023-09-08T11:45:19;4.78;;;3.95;;
15689;SDS011;7945;48.816;11.506;2023-09-08T11:47:48;4.40;;;4.00;;
15689;SDS011;7945;48.816;11.506;2023-09-08T11:50:16;4.85;;;4.35;;
15689;SDS011;7945;48.816;11.506;2023-09-08T11:52:45;5.72;;;4.13;;
15689;SDS011;7945;48.816;11.506;2023-09-08T11:55:13;4.68;;;3.88;;
15689;SDS011;7945;48.816;11.506;2023-09-08T11:57:40;5.53;;;4.78;;
15689;SDS011;7945;48.816;11.506;2023-09-08T12:00:09;7.35;;;4.40;;
15689;SDS011;7945;48.816;11.506;2023-09-08T12:02:41;4.18;;;3.72;;
15689;SDS011;7945;48.816;11.506;2023-09-08T12:05:11;6.55;;;4.60;;
15689;SDS011;7945;48.816;11.506;2023-09-08T12:07:40;4.53;;;4.13;;
15689;SDS011;7945;48.816;11.506;2023-09-08T12:10:08;7.60;;;4.78;;
15689;SDS011;7945;48.816;11.506;2023-09-08T12:12:41;5.75;;;4.60;;
15689;SDS011;7945;48.816;11.506;2023-09-08T12:15:08;5.47;;;4.32;;
15689;SDS011;7945;48.816;11.506;2023-09-08T12:17:45;7.40;;;4.53;;
15689;SDS011;7945;48.816;11.506;2023-09-08T12:20:13;4.72;;;4.07;;
15689;SDS011;7945;48.816;11.506;2023-09-08T12:22:48;5.53;;;4.30;;
15689;SDS011;7945;48.816;11.506;2023-09-08T12:25:15;6.07;;;4.18;;
15689;SDS011;7945;48.816;11.506;2023-09-08T12:27:44;4.22;;;3.80;;
15689;SDS011;7945;48.816;11.506;2023-09-08T12:30:16;4.65;;;4.18;;
15689;SDS011;7945;48.816;11.506;2023-09-08T12:32:44;4.40;;;4.00;;
15689;SDS011;7945;48.816;11.506;2023-09-08T12:35:13;5.10;;;4.57;;
15689;SDS011;7945;48.816;11.506;2023-09-08T12:37:45;6.88;;;4.28;;
15689;SDS011;7945;48.816;11.506;2023-09-08T12:40:13;5.93;;;4.80;;
15689;SDS011;7945;48.816;11.506;2023-09-08T12:42:41;4.70;;;4.05;;
15689;SDS011;7945;48.816;11.506;2023-09-08T12:45:07;5.63;;;4.22;;
15689;SDS011;7945;48.816;11.506;2023-09-08T12:47:34;5.97;;;3.70;;
15689;SDS011;7945;48.816;11.506;2023-09-08T12:50:01;5.00;;;3.80;;
15689;SDS011;7945;48.816;11.506;2023-09-08T12:52:28;6.47;;;4.30;;
15689;SDS011;7945;48.816;11.506;2023-09-08T12:54:56;5.68;;;4.28;;
15689;SDS011;7945;48.816;11.506;2023-09-08T12:57:24;4.43;;;4.00;;
15689;SDS011;7945;48.816;11.506;2023-09-08T12:59:51;7.50;;;4.47;;
15689;SDS011;7945;48.816;11.506;2023-09-08T13:02:18;4.60;;;4.07;;
15689;SDS011;7945;48.816;11.506;2023-09-08T13:04:46;4.90;;;4.30;;
15689;SDS011;7945;48.816;11.506;2023-09-08T13:07:13;5.13;;;4.40;;
15689;SDS011;7945;48.816;11.506;2023-09-08T13:09:40;6.03;;;4.20;;
15689;SDS011;7945;48.816;11.506;2023-09-08T13:12:07;4.68;;;3.95;;
15689;SDS011;7945;48.816;11.506;2023-09-08T13:14:36;6.88;;;4.10;;
15689;SDS011;7945;48.816;11.506;2023-09-08T13:17:03;7.55;;;4.32;;
15689;SDS011;7945;48.816;11.506;2023-09-08T13:21:57;5.28;;;4.10;;
15689;SDS011;7945;48.816;11.506;2023-09-08T13:24:24;4.72;;;4.20;;
15689;SDS011;7945;48.816;11.506;2023-09-08T13:26:50;6.72;;;4.13;;
15689;SDS011;7945;48.816;11.506;2023-09-08T13:29:17;5.72;;;4.13;;
15689;SDS011;7945;48.816;11.506;2023-09-08T13:31:46;4.28;;;3.88;;
15689;SDS011;7945;48.816;11.506;2023-09-08T13:34:13;5.40;;;4.47;;
15689;SDS011;7945;48.816;11.506;2023-09-08T13:36:39;4.72;;;4.20;;
15689;SDS011;7945;48.816;11.506;2023-09-08T13:39:06;6.15;;;4.15;;
15689;SDS011;7945;48.816;11.506;2023-09-08T13:41:46;5.75;;;4.32;;
15689;SDS011;7945;48.816;11.506;2023-09-08T13:44:15;6.18;;;4.30;;
15689;SDS011;7945;48.816;11.506;2023-09-08T13:46:42;4.63;;;4.18;;
15689;SDS011;7945;48.816;11.506;2023-09-08T13:49:10;4.85;;;4.32;;
15689;SDS011;7945;48.816;11.506;2023-09-08T13:51:37;5.38;;;4.22;;
15689;SDS011;7945;48.816;11.506;2023-09-08T13:54:04;6.28;;;4.38;;
15689;SDS011;7945;48.816;11.506;2023-09-08T13:56:31;6.85;;;4.45;;
15689;SDS011;7945;48.816;11.506;2023-09-08T13:58:58;5.13;;;4.30;;
15689;SDS011;7945;48.816;11.506;2023-09-08T14:01:24;5.68;;;4.50;;
15689;SDS011;7945;48.816;11.506;2023-09-08T14:03:53;5.05;;;4.30;;
15689;SDS011;7945;48.816;11.506;2023-09-08T14:06:22;6.55;;;4.55;;
15689;SDS011;7945;48.816;11.506;2023-09-08T14:08:49;4.90;;;4.45;;
15689;SDS011;7945;48.816;11.506;2023-09-08T14:11:16;4.97;;;4.47;;
15689;SDS011;7945;48.816;11.506;2023-09-08T14:13:43;6.22;;;4.45;;
15689;SDS011;7945;48.816;11.506;2023-09-08T14:16:10;5.78;;;4.15;;
15689;SDS011;7945;48.816;11.506;2023-09-08T14:18:38;4.43;;;4.03;;
15689;SDS011;7945;48.816;11.506;2023-09-08T14:21:05;6.47;;;4.40;;
15689;SDS011;7945;48.816;11.506;2023-09-08T14:23:33;5.53;;;4.13;;
15689;SDS011;7945;48.816;11.506;2023-09-08T14:26:00;4.63;;;4.20;;
15689;SDS011;7945;48.816;11.506;2023-09-08T14:28:27;6.75;;;4.38;;
15689;SDS011;7945;48.816;11.506;2023-09-08T14:30:53;5.80;;;4.50;;
15689;SDS011;7945;48.816;11.506;2023-09-08T14:33:20;6.47;;;4.07;;
15689;SDS011;7945;48.816;11.506;2023-09-08T14:35:47;4.82;;;4.32;;
15689;SDS011;7945;48.816;11.506;2023-09-08T14:38:16;6.63;;;3.97;;
15689;SDS011;7945;48.816;11.506;2023-09-08T14:40:45;6.18;;;4.88;;
15689;SDS011;7945;48.816;11.506;2023-09-08T14:43:20;5.60;;;4.32;;
15689;SDS011;7945;48.816;11.506;2023-09-08T14:45:47;4.95;;;4.20;;
15689;SDS011;7945;48.816;11.506;2023-09-08T14:48:14;5.53;;;4.43;;
15689;SDS011;7945;48.816;11.506;2023-09-08T14:50:40;5.57;;;4.32;;
15689;SDS011;7945;48.816;11.506;2023-09-08T14:53:07;5.07;;;3.90;;
15689;SDS011;7945;48.816;11.506;2023-09-08T14:55:34;7.50;;;4.18;;